Macuru Arrow — C6YH3 — position and weather

sailwx.info

Track history (hours):
 
Tides and Currents Weather Stations Pressure Air Temp Water Temp Dewpoint Dewpoint Depression Visibility Wind Speed Wind Dir Waves Ship Positions

Macuru Arrow

Last reported at 2015-Jun-08 11:30 UTC. Time now 2015-Jul-28 10:27 UTC.
Position N 23°41' E 118°01'.
Warning: this ship's position is 49 days out of date.

Length 225 m; draft 8.8 m.

Type: Cargo ship. MMSI: 311032500.

Date/timePositionNaut miles runAvg speedWind from/ knotsBaromVisibWave heightAir tempDewpointWater temp
2015-Jun-08 11:30N 23°41' E 118°01'1212.0
2015-Jun-08 10:30N 23°33' E 117°52'5713.8
2015-Jun-08 06:22N 22°55' E 117°05'15713.9
2015-Jun-07 19:05N 22°00' E 114°26'2012.8
2015-Jun-07 17:33N 21°57' E 114°05'1212.1
2015-Jun-07 16:33N 22°01' E 113°53'10 9.9
2015-Jun-07 15:33N 22°10' E 113°47'1110.8
2015-Jun-07 14:33N 22°20' E 113°48'2612.2
2015-Jun-07 12:28N 22°45' E 113°39'1010.4
2015-Jun-07 11:32N 22°53' E 113°34'9 9.4
2015-Jun-07 10:33N 23°02' E 113°31'1 1.0
2015-Jun-07 09:33N 23°03' E 113°31'0 0.0
2015-Jun-07 08:21N 23°03' E 113°31'0 0.0
2015-Jun-07 07:33N 23°03' E 113°31'0 0.0
2015-Jun-07 05:33N 23°03' E 113°31'0 0.0
2015-Jun-07 04:21N 23°03' E 113°31'0 0.0
2015-Jun-07 03:33N 23°03' E 113°31'0 0.0
2015-Jun-07 02:33N 23°03' E 113°31'0 0.0
2015-Jun-06 14:03N 23°03' E 113°31'0 0.0
2015-Jun-06 13:33N 23°03' E 113°31'0 0.0
2015-Jun-06 12:33N 23°03' E 113°31'0 0.0
2015-Jun-06 11:33N 23°03' E 113°31'0 0.0
2015-Jun-06 10:27N 23°03' E 113°31'0 0.0
2015-Jun-06 09:33N 23°03' E 113°31'0 0.0
2015-Jun-06 08:33N 23°03' E 113°31'0 0.0
2015-Jun-06 07:33N 23°03' E 113°31'0 0.0
2015-Jun-06 06:33N 23°03' E 113°31'0 0.0
2015-Jun-06 05:27N 23°03' E 113°31'0 0.0
2015-Jun-06 04:21N 23°03' E 113°31'0 0.0
2015-Jun-06 03:27N 23°03' E 113°31'0 0.0
2015-Jun-06 02:21N 23°03' E 113°31'0 0.0
2015-Jun-06 01:33N 23°03' E 113°31'0 0.0
2015-Jun-06 00:33N 23°03' E 113°31'0 0.0
2015-Jun-05 23:33N 23°03' E 113°31'0 0.0
2015-Jun-05 22:21N 23°03' E 113°31'0 0.0
2015-Jun-05 21:21N 23°03' E 113°31'0 0.0
2015-Jun-05 20:33N 23°03' E 113°31'0 0.0
2015-Jun-05 19:33N 23°03' E 113°31'0 0.0
2015-Jun-05 18:27N 23°03' E 113°31'0 0.0
2015-Jun-05 17:27N 23°03' E 113°31'0 0.0
2015-Jun-05 16:33N 23°03' E 113°31'0 0.0
2015-Jun-05 15:27N 23°03' E 113°31'0 0.0
2015-Jun-05 14:33N 23°03' E 113°31'0 0.0
2015-Jun-05 13:33N 23°03' E 113°31'0 0.0
2015-Jun-05 12:33N 23°03' E 113°31'0 0.0
2015-Jun-05 11:33N 23°03' E 113°31'0 0.0
2015-Jun-05 10:27N 23°03' E 113°31'0 0.0
2015-Jun-03 22:33N 23°03' E 113°31'0 0.0
2015-Jun-03 21:21N 23°03' E 113°31'0 0.0
2015-Jun-03 20:33N 23°03' E 113°31'0 0.0
2015-Jun-03 19:33N 23°03' E 113°31'0 0.0
2015-Jun-03 18:27N 23°03' E 113°31'0 0.0
2015-Jun-03 17:33N 23°03' E 113°31'0 0.0
2015-Jun-03 16:33N 23°03' E 113°31'0 0.0
2015-Jun-03 15:33N 23°03' E 113°31'0 0.0
2015-Jun-03 13:33N 23°03' E 113°31'0 0.0
2015-Jun-03 12:33N 23°03' E 113°31'0 0.0
2015-Jun-03 11:27N 23°03' E 113°31'0 0.0
2015-Jun-03 10:33N 23°03' E 113°31'2 2.0
2015-Jun-03 09:33N 23°01' E 113°31'9 8.8
2015-Jun-03 08:33N 22°53' E 113°34'8 7.6
2015-Jun-03 07:33N 22°46' E 113°38'1111.0
2015-Jun-03 06:31N 22°36' E 113°43'1411.4
2015-Jun-03 05:16N 22°22' E 113°47'710.5
2015-Jun-03 04:33N 22°14' E 113°48'7 6.6
2015-Jun-03 03:31N 22°08' E 113°48'0 0.2
2015-Jun-03 02:19N 22°08' E 113°48'0 0.1
2015-Jun-03 01:31N 22°08' E 113°48'0 0.0
2015-Jun-03 00:31N 22°08' E 113°48'0 0.0
2015-Jun-02 23:25N 22°08' E 113°48'0 0.0
2015-Jun-02 22:31N 22°08' E 113°48'0 0.1
2015-Jun-02 21:31N 22°08' E 113°48'0 0.1
2015-Jun-02 20:25N 22°08' E 113°48'0 0.0
2015-Jun-02 19:31N 22°08' E 113°48'0 0.0
2015-Jun-02 18:31N 22°08' E 113°48'0 0.0
2015-Jun-02 17:31N 22°08' E 113°48'0 0.0
2015-Jun-02 16:31N 22°08' E 113°48'1 0.8
2015-Jun-02 15:33N 22°07' E 113°48'19 8.4
2015-Jun-02 13:21N 22°06' E 114°08'4 0.3
2015-Jun-01 22:11N 22°10' E 114°09'1 0.2
2015-Jun-01 19:33N 22°09' E 114°10'7 7.5
2015-Jun-01 18:33N 22°09' E 114°18'1010.1
2015-Jun-01 17:33N 22°09' E 114°28'28612.2
2015-May-31 18:12N 24°15' E 119°07'1314.0
2015-May-31 17:15N 24°24' E 119°18'43411.8
2015-May-30 04:33N 31°06' E 122°22'1312.7
2015-May-30 03:30N 31°12' E 122°08'1111.7
2015-May-30 02:33N 31°15' E 121°56'10 9.8
2015-May-30 01:33N 31°18' E 121°45'9 8.6
2015-May-30 00:33N 31°22' E 121°36'9 9.3
2015-May-29 23:33N 31°28' E 121°27'1110.8
2015-May-29 22:33N 31°35' E 121°19'0 0.3
2015-May-29 21:31N 31°36' E 121°18'0 0.1
2015-May-29 20:31N 31°36' E 121°18'0 0.0
2015-May-29 19:31N 31°36' E 121°18'0 0.0
2015-May-29 18:31N 31°36' E 121°18'0 0.0
2015-May-29 17:31N 31°36' E 121°18'0 0.0
2015-May-29 16:31N 31°36' E 121°18'0 0.2
2015-May-29 15:31N 31°36' E 121°18'0 0.1
2015-May-29 14:31N 31°36' E 121°18'0 0.1
2015-May-29 13:31N 31°36' E 121°18'0 0.0
2015-May-29 12:34N 31°36' E 121°18'8 7.6
2015-May-29 11:33N 31°41' E 121°11'  
Track history (hours):
 
Tides and Currents Weather Stations Pressure Air Temp Water Temp Dewpoint Dewpoint Depression Visibility Wind Speed Wind Dir Waves Ship Positions

Macuru Arrow

Last reported at 2015-Jun-08 11:30 UTC. Time now 2015-Jul-28 10:27 UTC.
Position N 23°41' E 118°01'.
Warning: this ship's position is 49 days out of date.

Length 225 m; draft 8.8 m.

Type: Cargo ship. MMSI: 311032500.

Date/timePositionNaut miles runAvg speedWind from/ knotsBaromVisibWave heightAir tempDewpointWater temp
2015-Jun-08 11:30N 23°41' E 118°01'1212.0
2015-Jun-08 10:30N 23°33' E 117°52'5713.8
2015-Jun-08 06:22N 22°55' E 117°05'15713.9
2015-Jun-07 19:05N 22°00' E 114°26'2012.8
2015-Jun-07 17:33N 21°57' E 114°05'1212.1
2015-Jun-07 16:33N 22°01' E 113°53'10 9.9
2015-Jun-07 15:33N 22°10' E 113°47'1110.8
2015-Jun-07 14:33N 22°20' E 113°48'2612.2
2015-Jun-07 12:28N 22°45' E 113°39'1010.4
2015-Jun-07 11:32N 22°53' E 113°34'9 9.4
2015-Jun-07 10:33N 23°02' E 113°31'1 1.0
2015-Jun-07 09:33N 23°03' E 113°31'0 0.0
2015-Jun-07 08:21N 23°03' E 113°31'0 0.0
2015-Jun-07 07:33N 23°03' E 113°31'0 0.0
2015-Jun-07 05:33N 23°03' E 113°31'0 0.0
2015-Jun-07 04:21N 23°03' E 113°31'0 0.0
2015-Jun-07 03:33N 23°03' E 113°31'0 0.0
2015-Jun-07 02:33N 23°03' E 113°31'0 0.0
2015-Jun-06 14:03N 23°03' E 113°31'0 0.0
2015-Jun-06 13:33N 23°03' E 113°31'0 0.0
2015-Jun-06 12:33N 23°03' E 113°31'0 0.0
2015-Jun-06 11:33N 23°03' E 113°31'0 0.0
2015-Jun-06 10:27N 23°03' E 113°31'0 0.0
2015-Jun-06 09:33N 23°03' E 113°31'0 0.0
2015-Jun-06 08:33N 23°03' E 113°31'0 0.0
2015-Jun-06 07:33N 23°03' E 113°31'0 0.0
2015-Jun-06 06:33N 23°03' E 113°31'0 0.0
2015-Jun-06 05:27N 23°03' E 113°31'0 0.0
2015-Jun-06 04:21N 23°03' E 113°31'0 0.0
2015-Jun-06 03:27N 23°03' E 113°31'0 0.0
2015-Jun-06 02:21N 23°03' E 113°31'0 0.0
2015-Jun-06 01:33N 23°03' E 113°31'0 0.0
2015-Jun-06 00:33N 23°03' E 113°31'0 0.0
2015-Jun-05 23:33N 23°03' E 113°31'0 0.0
2015-Jun-05 22:21N 23°03' E 113°31'0 0.0
2015-Jun-05 21:21N 23°03' E 113°31'0 0.0
2015-Jun-05 20:33N 23°03' E 113°31'0 0.0
2015-Jun-05 19:33N 23°03' E 113°31'0 0.0
2015-Jun-05 18:27N 23°03' E 113°31'0 0.0
2015-Jun-05 17:27N 23°03' E 113°31'0 0.0
2015-Jun-05 16:33N 23°03' E 113°31'0 0.0
2015-Jun-05 15:27N 23°03' E 113°31'0 0.0
2015-Jun-05 14:33N 23°03' E 113°31'0 0.0
2015-Jun-05 13:33N 23°03' E 113°31'0 0.0
2015-Jun-05 12:33N 23°03' E 113°31'0 0.0
2015-Jun-05 11:33N 23°03' E 113°31'0 0.0
2015-Jun-05 10:27N 23°03' E 113°31'0 0.0
2015-Jun-03 22:33N 23°03' E 113°31'0 0.0
2015-Jun-03 21:21N 23°03' E 113°31'0 0.0
2015-Jun-03 20:33N 23°03' E 113°31'0 0.0
2015-Jun-03 19:33N 23°03' E 113°31'0 0.0
2015-Jun-03 18:27N 23°03' E 113°31'0 0.0
2015-Jun-03 17:33N 23°03' E 113°31'0 0.0
2015-Jun-03 16:33N 23°03' E 113°31'0 0.0
2015-Jun-03 15:33N 23°03' E 113°31'0 0.0
2015-Jun-03 13:33N 23°03' E 113°31'0 0.0
2015-Jun-03 12:33N 23°03' E 113°31'0 0.0
2015-Jun-03 11:27N 23°03' E 113°31'0 0.0
2015-Jun-03 10:33N 23°03' E 113°31'2 2.0
2015-Jun-03 09:33N 23°01' E 113°31'9 8.8
2015-Jun-03 08:33N 22°53' E 113°34'8 7.6
2015-Jun-03 07:33N 22°46' E 113°38'1111.0
2015-Jun-03 06:31N 22°36' E 113°43'1411.4
2015-Jun-03 05:16N 22°22' E 113°47'710.5
2015-Jun-03 04:33N 22°14' E 113°48'7 6.6
2015-Jun-03 03:31N 22°08' E 113°48'0 0.2
2015-Jun-03 02:19N 22°08' E 113°48'0 0.1
2015-Jun-03 01:31N 22°08' E 113°48'0 0.0
2015-Jun-03 00:31N 22°08' E 113°48'0 0.0
2015-Jun-02 23:25N 22°08' E 113°48'0 0.0
2015-Jun-02 22:31N 22°08' E 113°48'0 0.1
2015-Jun-02 21:31N 22°08' E 113°48'0 0.1
2015-Jun-02 20:25N 22°08' E 113°48'0 0.0
2015-Jun-02 19:31N 22°08' E 113°48'0 0.0
2015-Jun-02 18:31N 22°08' E 113°48'0 0.0
2015-Jun-02 17:31N 22°08' E 113°48'0 0.0
2015-Jun-02 16:31N 22°08' E 113°48'1 0.8
2015-Jun-02 15:33N 22°07' E 113°48'19 8.4
2015-Jun-02 13:21N 22°06' E 114°08'4 0.3
2015-Jun-01 22:11N 22°10' E 114°09'1 0.2
2015-Jun-01 19:33N 22°09' E 114°10'7 7.5
2015-Jun-01 18:33N 22°09' E 114°18'1010.1
2015-Jun-01 17:33N 22°09' E 114°28'28612.2
2015-May-31 18:12N 24°15' E 119°07'1314.0
2015-May-31 17:15N 24°24' E 119°18'43411.8
2015-May-30 04:33N 31°06' E 122°22'1312.7
2015-May-30 03:30N 31°12' E 122°08'1111.7
2015-May-30 02:33N 31°15' E 121°56'10 9.8
2015-May-30 01:33N 31°18' E 121°45'9 8.6
2015-May-30 00:33N 31°22' E 121°36'9 9.3
2015-May-29 23:33N 31°28' E 121°27'1110.8
2015-May-29 22:33N 31°35' E 121°19'0 0.3
2015-May-29 21:31N 31°36' E 121°18'0 0.1
2015-May-29 20:31N 31°36' E 121°18'0 0.0
2015-May-29 19:31N 31°36' E 121°18'0 0.0
2015-May-29 18:31N 31°36' E 121°18'0 0.0
2015-May-29 17:31N 31°36' E 121°18'0 0.0
2015-May-29 16:31N 31°36' E 121°18'0 0.2
2015-May-29 15:31N 31°36' E 121°18'0 0.1
2015-May-29 14:31N 31°36' E 121°18'0 0.1
2015-May-29 13:31N 31°36' E 121°18'0 0.0
2015-May-29 12:34N 31°36' E 121°18'8 7.6
2015-May-29 11:33N 31°41' E 121°11'  

Dump ship's entire track history